sensor_id;sensor_type;location;lat;lon;timestamp;pressure;altitude;pressure_sealevel;temperature;humidity
4767;BME280;2397;53.576;9.746;2023-04-10T00:01:45;102507.16;;;8.83;74.25
4767;BME280;2397;53.576;9.746;2023-04-10T00:04:11;102497.06;;;8.90;74.11
4767;BME280;2397;53.576;9.746;2023-04-10T00:06:38;102502.34;;;8.76;74.44
4767;BME280;2397;53.576;9.746;2023-04-10T00:09:06;102491.00;;;8.75;74.42
4767;BME280;2397;53.576;9.746;2023-04-10T00:11:33;102488.00;;;8.67;74.58
4767;BME280;2397;53.576;9.746;2023-04-10T00:13:59;102489.41;;;8.73;74.69
4767;BME280;2397;53.576;9.746;2023-04-10T00:16:26;102487.16;;;8.67;74.85
4767;BME280;2397;53.576;9.746;2023-04-10T00:18:53;102489.31;;;8.74;74.78
4767;BME280;2397;53.576;9.746;2023-04-10T00:21:19;102491.19;;;8.72;74.39
4767;BME280;2397;53.576;9.746;2023-04-10T00:23:46;102483.94;;;8.76;74.59
4767;BME280;2397;53.576;9.746;2023-04-10T00:26:12;102480.56;;;8.74;74.14
4767;BME280;2397;53.576;9.746;2023-04-10T00:28:41;102477.28;;;8.70;74.02
4767;BME280;2397;53.576;9.746;2023-04-10T00:31:07;102479.63;;;8.75;74.00
4767;BME280;2397;53.576;9.746;2023-04-10T00:33:33;102473.13;;;8.80;73.75
4767;BME280;2397;53.576;9.746;2023-04-10T00:36:00;102465.31;;;8.79;73.77
4767;BME280;2397;53.576;9.746;2023-04-10T00:38:27;102469.53;;;8.81;73.33
4767;BME280;2397;53.576;9.746;2023-04-10T00:40:53;102471.44;;;8.79;73.70
4767;BME280;2397;53.576;9.746;2023-04-10T00:43:20;102473.31;;;8.77;73.69
4767;BME280;2397;53.576;9.746;2023-04-10T00:45:47;102471.63;;;8.76;73.46
4767;BME280;2397;53.576;9.746;2023-04-10T00:48:16;102472.16;;;8.81;73.50
4767;BME280;2397;53.576;9.746;2023-04-10T00:50:45;102469.53;;;8.81;73.45
4767;BME280;2397;53.576;9.746;2023-04-10T00:53:11;102465.13;;;8.82;73.58
4767;BME280;2397;53.576;9.746;2023-04-10T00:55:38;102463.91;;;8.73;73.82
4767;BME280;2397;53.576;9.746;2023-04-10T00:58:04;102465.63;;;8.74;74.15
4767;BME280;2397;53.576;9.746;2023-04-10T01:00:32;102456.44;;;8.67;74.54
4767;BME280;2397;53.576;9.746;2023-04-10T01:02:58;102460.47;;;8.73;74.21
4767;BME280;2397;53.576;9.746;2023-04-10T01:05:33;102455.66;;;8.65;74.12
4767;BME280;2397;53.576;9.746;2023-04-10T01:13:23;102457.00;;;8.58;74.95
4767;BME280;2397;53.576;9.746;2023-04-10T01:18:49;102461.53;;;8.56;74.93
4767;BME280;2397;53.576;9.746;2023-04-10T01:21:20;102462.16;;;8.60;75.00
4767;BME280;2397;53.576;9.746;2023-04-10T01:27:12;102462.19;;;8.46;75.71
4767;BME280;2397;53.576;9.746;2023-04-10T01:29:51;102462.00;;;8.49;75.55
4767;BME280;2397;53.576;9.746;2023-04-10T01:32:21;102458.53;;;8.34;75.69
4767;BME280;2397;53.576;9.746;2023-04-10T01:34:54;102455.50;;;8.26;76.16
4767;BME280;2397;53.576;9.746;2023-04-10T01:37:30;102451.78;;;8.30;76.41
4767;BME280;2397;53.576;9.746;2023-04-10T01:40:02;102444.53;;;8.34;76.41
4767;BME280;2397;53.576;9.746;2023-04-10T01:42:30;102438.91;;;8.26;76.65
4767;BME280;2397;53.576;9.746;2023-04-10T01:44:59;102438.72;;;8.29;76.62
4767;BME280;2397;53.576;9.746;2023-04-10T01:47:27;102435.31;;;8.27;76.71
4767;BME280;2397;53.576;9.746;2023-04-10T01:49:55;102438.59;;;8.16;76.70
4767;BME280;2397;53.576;9.746;2023-04-10T01:52:23;102434.16;;;8.17;76.89
4767;BME280;2397;53.576;9.746;2023-04-10T01:55:01;102435.88;;;8.18;76.90
4767;BME280;2397;53.576;9.746;2023-04-10T01:57:36;102435.13;;;8.16;76.71
4767;BME280;2397;53.576;9.746;2023-04-10T02:00:03;102435.38;;;8.11;76.90
4767;BME280;2397;53.576;9.746;2023-04-10T02:02:40;102421.88;;;8.17;76.76
4767;BME280;2397;53.576;9.746;2023-04-10T02:05:08;102420.56;;;8.10;77.16
4767;BME280;2397;53.576;9.746;2023-04-10T02:07:58;102413.97;;;8.03;77.24
4767;BME280;2397;53.576;9.746;2023-04-10T02:10:30;102411.81;;;8.10;77.11
4767;BME280;2397;53.576;9.746;2023-04-10T02:13:09;102417.28;;;8.07;77.04
4767;BME280;2397;53.576;9.746;2023-04-10T02:15:41;102425.09;;;8.08;77.24
4767;BME280;2397;53.576;9.746;2023-04-10T02:18:09;102418.13;;;8.07;77.00
4767;BME280;2397;53.576;9.746;2023-04-10T02:20:36;102413.06;;;8.04;77.03
4767;BME280;2397;53.576;9.746;2023-04-10T02:23:03;102402.63;;;8.03;77.21
4767;BME280;2397;53.576;9.746;2023-04-10T02:25:34;102408.16;;;7.98;77.14
4767;BME280;2397;53.576;9.746;2023-04-10T02:28:05;102403.56;;;8.02;77.42
4767;BME280;2397;53.576;9.746;2023-04-10T02:30:32;102400.47;;;7.95;77.06
4767;BME280;2397;53.576;9.746;2023-04-10T02:32:59;102402.91;;;7.84;77.25
4767;BME280;2397;53.576;9.746;2023-04-10T02:35:28;102395.88;;;7.85;77.51
4767;BME280;2397;53.576;9.746;2023-04-10T02:37:54;102403.94;;;7.82;77.61
4767;BME280;2397;53.576;9.746;2023-04-10T02:40:22;102393.53;;;7.80;77.65
4767;BME280;2397;53.576;9.746;2023-04-10T02:42:55;102393.53;;;7.80;77.93
4767;BME280;2397;53.576;9.746;2023-04-10T02:45:21;102386.66;;;7.78;77.61
4767;BME280;2397;53.576;9.746;2023-04-10T02:47:48;102377.75;;;7.80;77.35
4767;BME280;2397;53.576;9.746;2023-04-10T02:50:15;102378.13;;;7.74;77.06
4767;BME280;2397;53.576;9.746;2023-04-10T02:52:44;102373.06;;;7.71;77.34
4767;BME280;2397;53.576;9.746;2023-04-10T02:55:11;102371.25;;;7.72;77.14
4767;BME280;2397;53.576;9.746;2023-04-10T02:57:40;102366.84;;;7.58;77.26
4767;BME280;2397;53.576;9.746;2023-04-10T03:00:08;102372.47;;;7.52;77.58
4767;BME280;2397;53.576;9.746;2023-04-10T03:02:53;102367.41;;;7.49;77.50
4767;BME280;2397;53.576;9.746;2023-04-10T03:05:22;102362.81;;;7.53;77.62
4767;BME280;2397;53.576;9.746;2023-04-10T03:07:48;102359.72;;;7.60;77.36
4767;BME280;2397;53.576;9.746;2023-04-10T03:10:16;102359.53;;;7.63;76.92
4767;BME280;2397;53.576;9.746;2023-04-10T03:12:43;102349.50;;;7.56;77.04
4767;BME280;2397;53.576;9.746;2023-04-10T03:15:10;102350.13;;;7.45;77.22
4767;BME280;2397;53.576;9.746;2023-04-10T03:17:37;102350.88;;;7.47;77.00
4767;BME280;2397;53.576;9.746;2023-04-10T03:20:05;102347.91;;;7.53;77.09
4767;BME280;2397;53.576;9.746;2023-04-10T03:22:32;102341.88;;;7.51;76.66
4767;BME280;2397;53.576;9.746;2023-04-10T03:24:59;102339.25;;;7.51;76.85
4767;BME280;2397;53.576;9.746;2023-04-10T03:27:28;102346.41;;;7.49;76.83
4767;BME280;2397;53.576;9.746;2023-04-10T03:29:57;102347.97;;;7.38;77.31
4767;BME280;2397;53.576;9.746;2023-04-10T03:32:24;102348.25;;;7.47;77.00
4767;BME280;2397;53.576;9.746;2023-04-10T03:34:53;102341.88;;;7.51;76.93
4767;BME280;2397;53.576;9.746;2023-04-10T03:37:20;102331.00;;;7.43;76.82
4767;BME280;2397;53.576;9.746;2023-04-10T03:39:46;102336.44;;;7.40;77.08
4767;BME280;2397;53.576;9.746;2023-04-10T03:42:13;102337.00;;;7.31;77.31
4767;BME280;2397;53.576;9.746;2023-04-10T03:44:40;102329.13;;;7.31;77.29
4767;BME280;2397;53.576;9.746;2023-04-10T03:47:07;102331.75;;;7.31;77.32
4767;BME280;2397;53.576;9.746;2023-04-10T03:49:33;102333.25;;;7.35;76.97
4767;BME280;2397;53.576;9.746;2023-04-10T03:52:04;102326.50;;;7.31;77.47
4767;BME280;2397;53.576;9.746;2023-04-10T03:54:31;102325.53;;;7.32;77.42
4767;BME280;2397;53.576;9.746;2023-04-10T03:56:59;102324.13;;;7.27;77.00
4767;BME280;2397;53.576;9.746;2023-04-10T03:59:27;102323.00;;;7.31;77.37
4767;BME280;2397;53.576;9.746;2023-04-10T04:02:06;102319.66;;;7.29;77.39
4767;BME280;2397;53.576;9.746;2023-04-10T04:04:33;102321.50;;;7.27;77.41
4767;BME280;2397;53.576;9.746;2023-04-10T04:07:18;102315.13;;;7.31;76.81
4767;BME280;2397;53.576;9.746;2023-04-10T04:10:00;102324.97;;;7.27;77.35
4767;BME280;2397;53.576;9.746;2023-04-10T04:12:47;102321.59;;;7.25;76.73
4767;BME280;2397;53.576;9.746;2023-04-10T04:15:40;102318.03;;;7.26;76.61
4767;BME280;2397;53.576;9.746;2023-04-10T04:18:34;102315.59;;;7.23;77.09
4767;BME280;2397;53.576;9.746;2023-04-10T04:21:17;102318.22;;;7.23;76.79
4767;BME280;2397;53.576;9.746;2023-04-10T04:24:02;102311.25;;;7.22;76.63
4767;BME280;2397;53.576;9.746;2023-04-10T04:26:48;102320.94;;;7.22;76.31
4767;BME280;2397;53.576;9.746;2023-04-10T04:29:36;102309.41;;;7.24;76.52
4767;BME280;2397;53.576;9.746;2023-04-10T04:32:12;102313.63;;;7.27;76.58
4767;BME280;2397;53.576;9.746;2023-04-10T04:34:54;102314.47;;;7.27;76.33
4767;BME280;2397;53.576;9.746;2023-04-10T04:37:31;102320.72;;;7.25;76.29
4767;BME280;2397;53.576;9.746;2023-04-10T04:40:16;102320.94;;;7.22;76.83
4767;BME280;2397;53.576;9.746;2023-04-10T04:43:00;102318.41;;;7.20;76.88
4767;BME280;2397;53.576;9.746;2023-04-10T04:45:56;102319.91;;;7.24;76.32
4767;BME280;2397;53.576;9.746;2023-04-10T04:48:38;102319.91;;;7.24;76.24
4767;BME280;2397;53.576;9.746;2023-04-10T04:51:20;102323.28;;;7.26;75.83
4767;BME280;2397;53.576;9.746;2023-04-10T04:54:15;102321.75;;;7.22;76.40
4767;BME280;2397;53.576;9.746;2023-04-10T04:57:11;102318.59;;;7.31;76.29
4767;BME280;2397;53.576;9.746;2023-04-10T04:59:52;102325.16;;;7.24;75.67
4767;BME280;2397;53.576;9.746;2023-04-10T05:02:39;102317.84;;;7.29;75.44
4767;BME280;2397;53.576;9.746;2023-04-10T05:05:29;102309.13;;;7.29;75.47
4767;BME280;2397;53.576;9.746;2023-04-10T05:08:05;102321.88;;;7.35;75.40
4767;BME280;2397;53.576;9.746;2023-04-10T05:10:54;102325.44;;;7.34;75.63
4767;BME280;2397;53.576;9.746;2023-04-10T05:13:53;102319.00;;;7.39;75.88
4767;BME280;2397;53.576;9.746;2023-04-10T05:16:33;102314.56;;;7.40;75.09
4767;BME280;2397;53.576;9.746;2023-04-10T05:19:14;102310.84;;;7.44;75.72
4767;BME280;2397;53.576;9.746;2023-04-10T05:21:50;102312.44;;;7.60;74.52
4767;BME280;2397;53.576;9.746;2023-04-10T05:24:35;102312.72;;;7.56;74.43
4767;BME280;2397;53.576;9.746;2023-04-10T05:27:13;102316.16;;;7.56;74.10
4767;BME280;2397;53.576;9.746;2023-04-10T05:30:02;102318.06;;;7.68;73.81
4767;BME280;2397;53.576;9.746;2023-04-10T05:32:45;102324.06;;;7.70;73.52
4767;BME280;2397;53.576;9.746;2023-04-10T05:35:17;102311.75;;;7.85;72.89
4767;BME280;2397;53.576;9.746;2023-04-10T05:37:53;102317.28;;;7.80;72.82
4767;BME280;2397;53.576;9.746;2023-04-10T05:40:36;102309.78;;;7.88;72.66
4767;BME280;2397;53.576;9.746;2023-04-10T05:43:34;102315.97;;;7.87;72.19
4767;BME280;2397;53.576;9.746;2023-04-10T05:46:11;102303.56;;;7.89;72.49
4767;BME280;2397;53.576;9.746;2023-04-10T05:48:46;102315.88;;;7.89;72.69
4767;BME280;2397;53.576;9.746;2023-04-10T05:51:15;102303.56;;;7.89;72.07
4767;BME280;2397;53.576;9.746;2023-04-10T05:54:00;102314.00;;;7.91;72.34
4767;BME280;2397;53.576;9.746;2023-04-10T05:56:43;102306.59;;;7.97;71.92
4767;BME280;2397;53.576;9.746;2023-04-10T05:59:18;102308.28;;;7.98;72.37
4767;BME280;2397;53.576;9.746;2023-04-10T06:02:02;102299.44;;;7.99;71.76
4767;BME280;2397;53.576;9.746;2023-04-10T06:04:28;102303.66;;;8.02;72.03
4767;BME280;2397;53.576;9.746;2023-04-10T06:06:57;102295.22;;;7.97;71.81
4767;BME280;2397;53.576;9.746;2023-04-10T06:09:23;102296.63;;;8.02;72.23
4767;BME280;2397;53.576;9.746;2023-04-10T06:11:50;102290.03;;;8.09;71.82
4767;BME280;2397;53.576;9.746;2023-04-10T06:14:20;102291.13;;;8.19;71.07
4767;BME280;2397;53.576;9.746;2023-04-10T06:16:46;102286.88;;;8.31;70.94
4767;BME280;2397;53.576;9.746;2023-04-10T06:19:13;102283.03;;;8.36;70.08
4767;BME280;2397;53.576;9.746;2023-04-10T06:21:40;102274.84;;;8.41;70.39
4767;BME280;2397;53.576;9.746;2023-04-10T06:24:06;102263.06;;;8.46;69.51
4767;BME280;2397;53.576;9.746;2023-04-10T06:26:33;102264.34;;;8.53;69.72
4767;BME280;2397;53.576;9.746;2023-04-10T06:29:02;102262.25;;;8.58;69.16
4767;BME280;2397;53.576;9.746;2023-04-10T06:31:31;102263.16;;;8.71;68.61
4767;BME280;2397;53.576;9.746;2023-04-10T06:33:58;102262.19;;;8.72;68.95
4767;BME280;2397;53.576;9.746;2023-04-10T06:36:26;102260.94;;;8.78;68.61
4767;BME280;2397;53.576;9.746;2023-04-10T06:39:00;102256.84;;;8.86;68.14
4767;BME280;2397;53.576;9.746;2023-04-10T06:41:28;102255.78;;;8.89;67.80
4767;BME280;2397;53.576;9.746;2023-04-10T06:44:03;102254.22;;;8.86;68.70
4767;BME280;2397;53.576;9.746;2023-04-10T06:46:30;102255.25;;;8.96;68.86
4767;BME280;2397;53.576;9.746;2023-04-10T06:48:56;102258.34;;;9.03;67.26
4767;BME280;2397;53.576;9.746;2023-04-10T06:51:23;102250.84;;;8.97;67.95
4767;BME280;2397;53.576;9.746;2023-04-10T06:53:50;102254.66;;;9.05;67.73
4767;BME280;2397;53.576;9.746;2023-04-10T06:56:16;102259.16;;;9.16;67.36
4767;BME280;2397;53.576;9.746;2023-04-10T06:58:42;102251.47;;;9.25;66.92
4767;BME280;2397;53.576;9.746;2023-04-10T07:01:09;102253.41;;;9.23;66.89
4767;BME280;2397;53.576;9.746;2023-04-10T07:03:36;102254.44;;;9.33;66.97
4767;BME280;2397;53.576;9.746;2023-04-10T07:06:03;102251.38;;;9.39;66.76
4767;BME280;2397;53.576;9.746;2023-04-10T07:08:30;102252.63;;;9.46;66.18
4767;BME280;2397;53.576;9.746;2023-04-10T07:10:56;102242.06;;;9.59;65.50
4767;BME280;2397;53.576;9.746;2023-04-10T07:13:24;102245.56;;;9.59;65.51
4767;BME280;2397;53.576;9.746;2023-04-10T07:15:50;102251.34;;;9.64;65.62
4767;BME280;2397;53.576;9.746;2023-04-10T07:18:17;102250.56;;;9.75;65.62
4767;BME280;2397;53.576;9.746;2023-04-10T07:20:43;102248.66;;;9.89;65.11
4767;BME280;2397;53.576;9.746;2023-04-10T07:23:10;102249.25;;;9.93;64.91
4767;BME280;2397;53.576;9.746;2023-04-10T07:25:36;102245.31;;;10.11;65.00
4767;BME280;2397;53.576;9.746;2023-04-10T07:28:03;102244.38;;;10.35;63.76
4767;BME280;2397;53.576;9.746;2023-04-10T07:30:30;102236.50;;;10.47;63.04
4767;BME280;2397;53.576;9.746;2023-04-10T07:32:56;102237.28;;;10.60;63.11
4767;BME280;2397;53.576;9.746;2023-04-10T07:35:23;102235.06;;;10.88;62.37
4767;BME280;2397;53.576;9.746;2023-04-10T07:37:50;102225.25;;;11.01;61.43
4767;BME280;2397;53.576;9.746;2023-04-10T07:40:18;102221.56;;;11.15;60.89
4767;BME280;2397;53.576;9.746;2023-04-10T07:42:44;102227.09;;;11.23;60.98
4767;BME280;2397;53.576;9.746;2023-04-10T07:45:11;102223.25;;;11.49;60.60
4767;BME280;2397;53.576;9.746;2023-04-10T07:47:37;102222.06;;;11.64;59.00
4767;BME280;2397;53.576;9.746;2023-04-10T07:50:04;102219.97;;;11.78;57.98
4767;BME280;2397;53.576;9.746;2023-04-10T07:52:31;102216.44;;;12.11;57.58
4767;BME280;2397;53.576;9.746;2023-04-10T07:55:01;102207.69;;;12.31;57.11
4767;BME280;2397;53.576;9.746;2023-04-10T07:57:28;102216.19;;;12.45;58.18
4767;BME280;2397;53.576;9.746;2023-04-10T07:59:55;102212.13;;;12.62;55.65
4767;BME280;2397;53.576;9.746;2023-04-10T08:02:22;102215.16;;;12.78;56.36
4767;BME280;2397;53.576;9.746;2023-04-10T08:04:49;102202.13;;;13.06;54.65
4767;BME280;2397;53.576;9.746;2023-04-10T08:07:17;102201.56;;;13.03;53.28
4767;BME280;2397;53.576;9.746;2023-04-10T08:09:44;102199.88;;;13.32;54.64
4767;BME280;2397;53.576;9.746;2023-04-10T08:12:10;102202.44;;;13.43;53.99
4767;BME280;2397;53.576;9.746;2023-04-10T08:14:36;102192.78;;;13.42;53.68
4767;BME280;2397;53.576;9.746;2023-04-10T08:17:03;102186.44;;;13.54;52.53
4767;BME280;2397;53.576;9.746;2023-04-10T08:19:30;102187.09;;;13.56;52.09
4767;BME280;2397;53.576;9.746;2023-04-10T08:21:57;102179.69;;;13.50;52.88
4767;BME280;2397;53.576;9.746;2023-04-10T08:24:23;102173.84;;;13.56;54.10
4767;BME280;2397;53.576;9.746;2023-04-10T08:26:49;102175.84;;;13.73;53.15
4767;BME280;2397;53.576;9.746;2023-04-10T08:29:16;102169.72;;;13.92;51.64
4767;BME280;2397;53.576;9.746;2023-04-10T08:31:42;102161.09;;;13.90;52.82
4767;BME280;2397;53.576;9.746;2023-04-10T08:34:09;102161.50;;;14.14;51.43
4767;BME280;2397;53.576;9.746;2023-04-10T08:36:35;102150.34;;;13.91;50.95
4767;BME280;2397;53.576;9.746;2023-04-10T08:39:02;102156.31;;;14.12;52.36
4767;BME280;2397;53.576;9.746;2023-04-10T08:41:28;102155.13;;;14.35;51.52
4767;BME280;2397;53.576;9.746;2023-04-10T08:43:56;102156.91;;;14.44;50.86
4767;BME280;2397;53.576;9.746;2023-04-10T08:46:23;102148.81;;;14.36;49.97
4767;BME280;2397;53.576;9.746;2023-04-10T08:51:19;102151.84;;;14.60;50.55
4767;BME280;2397;53.576;9.746;2023-04-10T08:53:57;102146.63;;;14.87;50.30
4767;BME280;2397;53.576;9.746;2023-04-10T08:56:24;102137.47;;;14.99;49.33
4767;BME280;2397;53.576;9.746;2023-04-10T08:58:52;102124.09;;;15.18;47.79
4767;BME280;2397;53.576;9.746;2023-04-10T09:01:20;102126.19;;;15.24;48.97
4767;BME280;2397;53.576;9.746;2023-04-10T09:03:47;102118.97;;;15.34;48.11
4767;BME280;2397;53.576;9.746;2023-04-10T09:06:14;102119.44;;;15.30;48.05
4767;BME280;2397;53.576;9.746;2023-04-10T09:08:40;102113.25;;;15.39;47.73
4767;BME280;2397;53.576;9.746;2023-04-10T09:11:07;102108.16;;;15.45;46.97
4767;BME280;2397;53.576;9.746;2023-04-10T09:13:36;102104.44;;;15.38;47.40
4767;BME280;2397;53.576;9.746;2023-04-10T09:16:03;102102.31;;;15.59;46.64
4767;BME280;2397;53.576;9.746;2023-04-10T09:18:49;102085.19;;;15.44;46.29
4767;BME280;2397;53.576;9.746;2023-04-10T09:21:19;102089.00;;;15.42;48.02
4767;BME280;2397;53.576;9.746;2023-04-10T09:23:47;102081.38;;;15.74;46.83
4767;BME280;2397;53.576;9.746;2023-04-10T09:26:28;102070.88;;;15.72;45.97
4767;BME280;2397;53.576;9.746;2023-04-10T09:29:06;102054.97;;;15.80;42.79
4767;BME280;2397;53.576;9.746;2023-04-10T09:31:34;102046.63;;;15.75;42.21
4767;BME280;2397;53.576;9.746;2023-04-10T09:34:18;102026.03;;;15.85;41.43
4767;BME280;2397;53.576;9.746;2023-04-10T09:36:57;102025.75;;;15.88;40.73
4767;BME280;2397;53.576;9.746;2023-04-10T09:39:36;102011.78;;;15.86;41.22
4767;BME280;2397;53.576;9.746;2023-04-10T09:42:06;102003.19;;;16.00;41.20
4767;BME280;2397;53.576;9.746;2023-04-10T09:44:35;102010.13;;;16.11;40.65
4767;BME280;2397;53.576;9.746;2023-04-10T09:47:21;101998.97;;;16.15;41.00
4767;BME280;2397;53.576;9.746;2023-04-10T09:49:58;101993.78;;;16.14;39.63
4767;BME280;2397;53.576;9.746;2023-04-10T09:52:30;101991.72;;;16.25;39.79
4767;BME280;2397;53.576;9.746;2023-04-10T09:54:59;101979.72;;;16.21;38.70
4767;BME280;2397;53.576;9.746;2023-04-10T09:57:28;101966.66;;;16.10;39.50
4767;BME280;2397;53.576;9.746;2023-04-10T09:59:56;101973.91;;;16.00;38.82
4767;BME280;2397;53.576;9.746;2023-04-10T10:02:26;101962.41;;;16.25;41.60
4767;BME280;2397;53.576;9.746;2023-04-10T10:04:54;101964.88;;;16.44;38.34
4767;BME280;2397;53.576;9.746;2023-04-10T10:07:22;101959.84;;;16.41;38.84
4767;BME280;2397;53.576;9.746;2023-04-10T10:09:50;101951.94;;;16.49;39.09
4767;BME280;2397;53.576;9.746;2023-04-10T10:12:49;101958.97;;;16.66;38.57
4767;BME280;2397;53.576;9.746;2023-04-10T10:15:22;101941.72;;;16.78;38.19
4767;BME280;2397;53.576;9.746;2023-04-10T10:20:31;101931.09;;;17.11;38.75
4767;BME280;2397;53.576;9.746;2023-04-10T10:23:02;101929.13;;;17.29;37.10
4767;BME280;2397;53.576;9.746;2023-04-10T10:25:30;101922.84;;;17.54;38.40
4767;BME280;2397;53.576;9.746;2023-04-10T10:27:58;101917.94;;;17.97;38.22
4767;BME280;2397;53.576;9.746;2023-04-10T10:30:33;101908.06;;;18.06;35.50
4767;BME280;2397;53.576;9.746;2023-04-10T10:33:02;101892.13;;;17.66;35.82
4767;BME280;2397;53.576;9.746;2023-04-10T10:35:31;101897.13;;;17.61;36.15
4767;BME280;2397;53.576;9.746;2023-04-10T10:38:01;101895.13;;;17.55;38.22
4767;BME280;2397;53.576;9.746;2023-04-10T10:40:34;101886.78;;;17.58;36.60
4767;BME280;2397;53.576;9.746;2023-04-10T10:43:12;101880.09;;;17.70;36.36
4767;BME280;2397;53.576;9.746;2023-04-10T10:45:45;101879.19;;;18.01;36.56
4767;BME280;2397;53.576;9.746;2023-04-10T10:48:15;101860.25;;;18.27;35.70
4767;BME280;2397;53.576;9.746;2023-04-10T10:50:56;101851.03;;;18.29;34.89
4767;BME280;2397;53.576;9.746;2023-04-10T10:55:57;101841.69;;;18.64;34.66
4767;BME280;2397;53.576;9.746;2023-04-10T10:58:46;101833.53;;;18.57;34.03
4767;BME280;2397;53.576;9.746;2023-04-10T11:01:13;101831.22;;;18.77;34.06
4767;BME280;2397;53.576;9.746;2023-04-10T11:03:41;101825.25;;;18.44;33.82
4767;BME280;2397;53.576;9.746;2023-04-10T11:06:15;101826.91;;;18.76;32.64
4767;BME280;2397;53.576;9.746;2023-04-10T11:11:20;101807.97;;;19.22;32.62
4767;BME280;2397;53.576;9.746;2023-04-10T11:16:15;101806.81;;;19.02;31.68
4767;BME280;2397;53.576;9.746;2023-04-10T11:21:15;101796.41;;;19.22;31.35
4767;BME280;2397;53.576;9.746;2023-04-10T11:31:38;101761.03;;;19.78;30.60
4767;BME280;2397;53.576;9.746;2023-04-10T11:34:06;101759.16;;;20.08;31.37
4767;BME280;2397;53.576;9.746;2023-04-10T11:36:36;101757.50;;;19.92;28.72
4767;BME280;2397;53.576;9.746;2023-04-10T11:39:10;101766.78;;;19.75;29.04
4767;BME280;2397;53.576;9.746;2023-04-10T11:41:45;101757.16;;;19.66;29.10
4767;BME280;2397;53.576;9.746;2023-04-10T11:44:14;101758.63;;;19.54;28.97
4767;BME280;2397;53.576;9.746;2023-04-10T11:46:43;101759.69;;;20.03;29.40
4767;BME280;2397;53.576;9.746;2023-04-10T11:49:17;101749.59;;;20.34;29.44
4767;BME280;2397;53.576;9.746;2023-04-10T11:51:48;101747.03;;;20.68;29.30
4767;BME280;2397;53.576;9.746;2023-04-10T11:54:17;101743.59;;;20.53;27.61
4767;BME280;2397;53.576;9.746;2023-04-10T11:56:55;101728.47;;;20.46;29.03
4767;BME280;2397;53.576;9.746;2023-04-10T11:59:23;101723.53;;;20.28;28.80
4767;BME280;2397;53.576;9.746;2023-04-10T12:01:50;101730.78;;;20.13;28.79
4767;BME280;2397;53.576;9.746;2023-04-10T12:04:22;101712.19;;;19.61;29.45
4767;BME280;2397;53.576;9.746;2023-04-10T12:06:51;101712.38;;;19.60;29.12
4767;BME280;2397;53.576;9.746;2023-04-10T12:09:19;101710.09;;;19.42;29.34
4767;BME280;2397;53.576;9.746;2023-04-10T12:14:22;101715.13;;;19.23;30.00
4767;BME280;2397;53.576;9.746;2023-04-10T12:16:54;101704.91;;;18.89;30.10
4767;BME280;2397;53.576;9.746;2023-04-10T12:19:22;101693.66;;;19.31;29.86
4767;BME280;2397;53.576;9.746;2023-04-10T12:21:48;101691.31;;;19.57;29.51
4767;BME280;2397;53.576;9.746;2023-04-10T12:27:28;101694.88;;;19.93;29.10
4767;BME280;2397;53.576;9.746;2023-04-10T12:29:56;101693.53;;;20.03;28.49
4767;BME280;2397;53.576;9.746;2023-04-10T12:32:24;101682.53;;;20.13;29.11
4767;BME280;2397;53.576;9.746;2023-04-10T12:34:56;101675.47;;;20.27;27.60
4767;BME280;2397;53.576;9.746;2023-04-10T12:37:25;101680.75;;;20.20;28.41
4767;BME280;2397;53.576;9.746;2023-04-10T12:40:12;101680.25;;;20.52;27.95
4767;BME280;2397;53.576;9.746;2023-04-10T12:42:39;101673.69;;;20.55;28.48
4767;BME280;2397;53.576;9.746;2023-04-10T12:45:06;101661.75;;;20.85;27.26
4767;BME280;2397;53.576;9.746;2023-04-10T12:47:48;101661.22;;;20.47;27.40
4767;BME280;2397;53.576;9.746;2023-04-10T12:50:19;101666.56;;;20.47;27.62
4767;BME280;2397;53.576;9.746;2023-04-10T12:53:04;101660.09;;;20.35;29.94
4767;BME280;2397;53.576;9.746;2023-04-10T12:55:37;101658.69;;;20.18;28.13
4767;BME280;2397;53.576;9.746;2023-04-10T12:58:19;101648.16;;;20.02;28.51
4767;BME280;2397;53.576;9.746;2023-04-10T13:00:47;101638.91;;;19.83;29.69
4767;BME280;2397;53.576;9.746;2023-04-10T13:03:13;101638.56;;;19.72;29.38
4767;BME280;2397;53.576;9.746;2023-04-10T13:05:40;101634.59;;;19.68;29.83
4767;BME280;2397;53.576;9.746;2023-04-10T13:08:07;101636.72;;;19.72;29.68
4767;BME280;2397;53.576;9.746;2023-04-10T13:10:33;101626.44;;;19.76;30.02
4767;BME280;2397;53.576;9.746;2023-04-10T13:13:03;101615.19;;;19.80;30.03
4767;BME280;2397;53.576;9.746;2023-04-10T13:15:32;101616.09;;;19.52;29.77
4767;BME280;2397;53.576;9.746;2023-04-10T13:18:03;101604.03;;;19.62;29.88
4767;BME280;2397;53.576;9.746;2023-04-10T13:20:33;101598.50;;;19.64;30.87
4767;BME280;2397;53.576;9.746;2023-04-10T13:23:01;101596.50;;;19.51;30.85
4767;BME280;2397;53.576;9.746;2023-04-10T13:25:32;101588.78;;;19.27;30.04
4767;BME280;2397;53.576;9.746;2023-04-10T13:27:59;101584.97;;;19.22;30.49
4767;BME280;2397;53.576;9.746;2023-04-10T13:30:27;101580.09;;;19.11;30.46
4767;BME280;2397;53.576;9.746;2023-04-10T13:32:54;101579.47;;;19.09;31.75
4767;BME280;2397;53.576;9.746;2023-04-10T13:35:22;101573.56;;;19.13;31.65
4767;BME280;2397;53.576;9.746;2023-04-10T13:37:49;101556.41;;;19.08;32.09
4767;BME280;2397;53.576;9.746;2023-04-10T13:40:19;101550.81;;;19.24;32.00
4767;BME280;2397;53.576;9.746;2023-04-10T13:42:47;101543.75;;;19.31;31.93
4767;BME280;2397;53.576;9.746;2023-04-10T13:45:14;101532.97;;;19.24;31.60
4767;BME280;2397;53.576;9.746;2023-04-10T13:47:41;101529.50;;;19.45;31.15
4767;BME280;2397;53.576;9.746;2023-04-10T13:50:08;101524.03;;;19.53;31.82
4767;BME280;2397;53.576;9.746;2023-04-10T13:52:34;101520.69;;;19.51;32.00
4767;BME280;2397;53.576;9.746;2023-04-10T13:55:01;101516.34;;;19.50;31.14
4767;BME280;2397;53.576;9.746;2023-04-10T13:57:27;101506.03;;;19.47;31.76
4767;BME280;2397;53.576;9.746;2023-04-10T13:59:54;101514.91;;;19.33;31.16
4767;BME280;2397;53.576;9.746;2023-04-10T14:02:20;101499.03;;;19.46;31.50
4767;BME280;2397;53.576;9.746;2023-04-10T14:04:47;101500.16;;;19.58;31.25
4767;BME280;2397;53.576;9.746;2023-04-10T14:07:13;101497.09;;;19.40;32.55
4767;BME280;2397;53.576;9.746;2023-04-10T14:09:40;101483.56;;;19.27;31.33
4767;BME280;2397;53.576;9.746;2023-04-10T14:12:06;101480.78;;;19.35;32.04
4767;BME280;2397;53.576;9.746;2023-04-10T14:14:33;101466.63;;;19.41;32.74
4767;BME280;2397;53.576;9.746;2023-04-10T14:17:00;101459.69;;;19.46;31.60
4767;BME280;2397;53.576;9.746;2023-04-10T14:19:26;101455.03;;;19.34;31.97